sensor_id;sensor_type;location;lat;lon;timestamp;pressure;altitude;pressure_sealevel;temperature;humidity
40372;BME280;28564;53.346;-6.554;2023-01-25T00:01:57;102834.83;;;12.29;55.11
40372;BME280;28564;53.346;-6.554;2023-01-25T00:04:25;102835.63;;;12.26;55.20
40372;BME280;28564;53.346;-6.554;2023-01-25T00:06:53;102833.15;;;12.31;55.17
40372;BME280;28564;53.346;-6.554;2023-01-25T00:09:23;102834.47;;;12.31;55.09
40372;BME280;28564;53.346;-6.554;2023-01-25T00:11:50;102836.60;;;12.26;55.29
40372;BME280;28564;53.346;-6.554;2023-01-25T00:14:18;102831.29;;;12.48;55.38
40372;BME280;28564;53.346;-6.554;2023-01-25T00:16:45;102832.00;;;12.44;55.55
40372;BME280;28564;53.346;-6.554;2023-01-25T00:19:12;102831.50;;;12.65;55.70
40372;BME280;28564;53.346;-6.554;2023-01-25T00:21:39;102831.80;;;12.17;55.60
40372;BME280;28564;53.346;-6.554;2023-01-25T00:24:07;102832.04;;;12.43;55.68
40372;BME280;28564;53.346;-6.554;2023-01-25T00:26:34;102836.90;;;12.17;55.69
40372;BME280;28564;53.346;-6.554;2023-01-25T00:29:02;102836.60;;;12.42;55.82
40372;BME280;28564;53.346;-6.554;2023-01-25T00:31:37;102835.30;;;12.18;55.58
40372;BME280;28564;53.346;-6.554;2023-01-25T00:34:36;102830.62;;;12.13;55.83
40372;BME280;28564;53.346;-6.554;2023-01-25T00:37:13;102828.11;;;12.12;55.88
40372;BME280;28564;53.346;-6.554;2023-01-25T00:39:41;102826.38;;;12.16;55.87
40372;BME280;28564;53.346;-6.554;2023-01-25T00:42:09;102826.17;;;12.17;55.70
40372;BME280;28564;53.346;-6.554;2023-01-25T00:44:37;102826.89;;;11.97;55.69
40372;BME280;28564;53.346;-6.554;2023-01-25T00:47:05;102830.25;;;12.24;55.51
40372;BME280;28564;53.346;-6.554;2023-01-25T00:49:32;102824.25;;;12.48;55.58
40372;BME280;28564;53.346;-6.554;2023-01-25T00:52:00;102824.65;;;12.18;55.71
40372;BME280;28564;53.346;-6.554;2023-01-25T00:54:27;102820.57;;;12.46;55.59
40372;BME280;28564;53.346;-6.554;2023-01-25T00:56:54;102819.37;;;12.42;55.60
40372;BME280;28564;53.346;-6.554;2023-01-25T00:59:22;102821.55;;;12.39;55.72
40372;BME280;28564;53.346;-6.554;2023-01-25T01:01:51;102827.91;;;12.05;56.05
40372;BME280;28564;53.346;-6.554;2023-01-25T01:04:18;102823.73;;;12.33;56.02
40372;BME280;28564;53.346;-6.554;2023-01-25T01:06:46;102822.92;;;12.07;55.99
40372;BME280;28564;53.346;-6.554;2023-01-25T01:09:19;102823.44;;;12.07;55.95
40372;BME280;28564;53.346;-6.554;2023-01-25T01:11:47;102827.73;;;12.51;56.18
40372;BME280;28564;53.346;-6.554;2023-01-25T01:14:15;102827.13;;;12.03;56.01
40372;BME280;28564;53.346;-6.554;2023-01-25T01:16:42;102826.65;;;12.19;56.25
40372;BME280;28564;53.346;-6.554;2023-01-25T01:19:10;102819.11;;;12.10;56.66
40372;BME280;28564;53.346;-6.554;2023-01-25T01:21:37;102821.84;;;12.25;57.08
40372;BME280;28564;53.346;-6.554;2023-01-25T01:24:04;102826.77;;;12.19;57.27
40372;BME280;28564;53.346;-6.554;2023-01-25T01:26:32;102830.45;;;12.16;57.51
40372;BME280;28564;53.346;-6.554;2023-01-25T01:29:00;102834.91;;;11.88;57.72
40372;BME280;28564;53.346;-6.554;2023-01-25T01:31:27;102830.12;;;12.05;57.91
40372;BME280;28564;53.346;-6.554;2023-01-25T01:33:56;102827.94;;;12.01;58.14
40372;BME280;28564;53.346;-6.554;2023-01-25T01:36:25;102828.16;;;11.93;58.56
40372;BME280;28564;53.346;-6.554;2023-01-25T01:38:53;102828.61;;;11.91;58.81
40372;BME280;28564;53.346;-6.554;2023-01-25T01:41:21;102823.08;;;11.88;58.85
40372;BME280;28564;53.346;-6.554;2023-01-25T01:43:48;102818.52;;;11.86;58.93
40372;BME280;28564;53.346;-6.554;2023-01-25T01:46:21;102816.64;;;11.83;59.16
40372;BME280;28564;53.346;-6.554;2023-01-25T01:48:52;102809.31;;;11.84;59.21
40372;BME280;28564;53.346;-6.554;2023-01-25T01:51:24;102811.30;;;11.90;59.09
40372;BME280;28564;53.346;-6.554;2023-01-25T01:54:02;102809.64;;;11.89;59.19
40372;BME280;28564;53.346;-6.554;2023-01-25T01:56:34;102807.99;;;11.70;59.13
40372;BME280;28564;53.346;-6.554;2023-01-25T01:59:04;102803.13;;;11.71;59.03
40372;BME280;28564;53.346;-6.554;2023-01-25T02:01:32;102798.42;;;11.91;59.14
40372;BME280;28564;53.346;-6.554;2023-01-25T02:04:01;102797.27;;;11.74;59.01
40372;BME280;28564;53.346;-6.554;2023-01-25T02:06:35;102796.26;;;11.98;58.92
40372;BME280;28564;53.346;-6.554;2023-01-25T02:09:06;102798.92;;;11.77;58.95
40372;BME280;28564;53.346;-6.554;2023-01-25T02:11:33;102800.30;;;11.98;58.92
40372;BME280;28564;53.346;-6.554;2023-01-25T02:14:01;102805.29;;;12.00;58.97
40372;BME280;28564;53.346;-6.554;2023-01-25T02:16:30;102808.41;;;12.01;58.92
40372;BME280;28564;53.346;-6.554;2023-01-25T02:18:58;102808.20;;;12.05;58.71
40372;BME280;28564;53.346;-6.554;2023-01-25T02:21:25;102802.10;;;11.86;58.71
40372;BME280;28564;53.346;-6.554;2023-01-25T02:23:55;102804.33;;;12.13;58.70
40372;BME280;28564;53.346;-6.554;2023-01-25T02:26:26;102801.77;;;12.10;58.58
40372;BME280;28564;53.346;-6.554;2023-01-25T02:28:57;102804.31;;;12.03;58.95
40372;BME280;28564;53.346;-6.554;2023-01-25T02:31:25;102808.16;;;11.82;58.83
40372;BME280;28564;53.346;-6.554;2023-01-25T02:33:52;102803.18;;;12.02;58.83
40372;BME280;28564;53.346;-6.554;2023-01-25T02:36:22;102811.39;;;11.79;58.91
40372;BME280;28564;53.346;-6.554;2023-01-25T02:38:54;102808.65;;;11.98;58.97
40372;BME280;28564;53.346;-6.554;2023-01-25T02:41:29;102805.76;;;11.79;59.01
40372;BME280;28564;53.346;-6.554;2023-01-25T02:43:58;102806.97;;;12.00;58.85
40372;BME280;28564;53.346;-6.554;2023-01-25T02:46:28;102806.96;;;11.78;59.03
40372;BME280;28564;53.346;-6.554;2023-01-25T02:48:57;102803.77;;;12.02;59.27
40372;BME280;28564;53.346;-6.554;2023-01-25T02:51:26;102799.69;;;12.08;59.20
40372;BME280;28564;53.346;-6.554;2023-01-25T02:53:55;102799.93;;;11.63;59.07
40372;BME280;28564;53.346;-6.554;2023-01-25T02:56:22;102793.14;;;12.16;59.01
40372;BME280;28564;53.346;-6.554;2023-01-25T02:58:50;102795.99;;;12.20;58.85
40372;BME280;28564;53.346;-6.554;2023-01-25T03:01:17;102801.64;;;12.22;58.55
40372;BME280;28564;53.346;-6.554;2023-01-25T03:03:45;102797.86;;;11.70;58.75
40372;BME280;28564;53.346;-6.554;2023-01-25T03:06:13;102799.46;;;12.18;58.71
40372;BME280;28564;53.346;-6.554;2023-01-25T03:08:40;102795.39;;;12.17;58.74
40372;BME280;28564;53.346;-6.554;2023-01-25T03:11:08;102794.01;;;11.94;58.77
40372;BME280;28564;53.346;-6.554;2023-01-25T03:13:36;102794.28;;;11.93;58.89
40372;BME280;28564;53.346;-6.554;2023-01-25T03:16:07;102801.65;;;11.65;58.86
40372;BME280;28564;53.346;-6.554;2023-01-25T03:18:36;102800.18;;;12.13;58.92
40372;BME280;28564;53.346;-6.554;2023-01-25T03:21:06;102796.62;;;11.91;58.75
40372;BME280;28564;53.346;-6.554;2023-01-25T03:23:34;102796.99;;;12.08;58.96
40372;BME280;28564;53.346;-6.554;2023-01-25T03:26:07;102796.10;;;12.06;59.26
40372;BME280;28564;53.346;-6.554;2023-01-25T03:28:35;102795.50;;;12.11;59.23
40372;BME280;28564;53.346;-6.554;2023-01-25T03:31:03;102794.28;;;11.95;59.16
40372;BME280;28564;53.346;-6.554;2023-01-25T03:33:31;102794.72;;;11.95;58.86
40372;BME280;28564;53.346;-6.554;2023-01-25T03:35:59;102794.50;;;12.15;58.87
40372;BME280;28564;53.346;-6.554;2023-01-25T03:38:26;102796.07;;;12.11;59.06
40372;BME280;28564;53.346;-6.554;2023-01-25T03:40:54;102794.68;;;12.13;59.20
40372;BME280;28564;53.346;-6.554;2023-01-25T03:43:22;102794.08;;;12.16;59.09
40372;BME280;28564;53.346;-6.554;2023-01-25T03:45:52;102791.98;;;12.17;59.05
40372;BME280;28564;53.346;-6.554;2023-01-25T03:48:19;102792.88;;;12.19;58.90
40372;BME280;28564;53.346;-6.554;2023-01-25T03:50:50;102788.11;;;11.94;59.06
40372;BME280;28564;53.346;-6.554;2023-01-25T03:53:18;102782.72;;;11.92;59.15
40372;BME280;28564;53.346;-6.554;2023-01-25T03:55:46;102782.94;;;12.19;58.98
40372;BME280;28564;53.346;-6.554;2023-01-25T03:58:13;102777.94;;;11.99;59.02
40372;BME280;28564;53.346;-6.554;2023-01-25T04:00:40;102778.04;;;12.18;59.11
40372;BME280;28564;53.346;-6.554;2023-01-25T04:03:07;102784.15;;;11.69;59.24
40372;BME280;28564;53.346;-6.554;2023-01-25T04:05:34;102783.41;;;12.20;59.02
40372;BME280;28564;53.346;-6.554;2023-01-25T04:08:02;102783.46;;;12.21;58.96
40372;BME280;28564;53.346;-6.554;2023-01-25T04:10:28;102778.72;;;11.99;58.95
40372;BME280;28564;53.346;-6.554;2023-01-25T04:12:56;102783.70;;;12.00;58.97
40372;BME280;28564;53.346;-6.554;2023-01-25T04:15:23;102786.08;;;12.23;58.76
40372;BME280;28564;53.346;-6.554;2023-01-25T04:17:50;102786.33;;;11.98;59.02
40372;BME280;28564;53.346;-6.554;2023-01-25T04:20:17;102784.60;;;12.00;58.95
40372;BME280;28564;53.346;-6.554;2023-01-25T04:22:44;102788.81;;;12.24;58.84
40372;BME280;28564;53.346;-6.554;2023-01-25T04:25:11;102783.82;;;12.21;58.81
40372;BME280;28564;53.346;-6.554;2023-01-25T04:27:38;102785.05;;;11.71;58.92
40372;BME280;28564;53.346;-6.554;2023-01-25T04:30:07;102786.70;;;11.68;59.28
40372;BME280;28564;53.346;-6.554;2023-01-25T04:32:35;102782.51;;;12.20;59.03
40372;BME280;28564;53.346;-6.554;2023-01-25T04:35:03;102776.72;;;11.99;59.09
40372;BME280;28564;53.346;-6.554;2023-01-25T04:37:31;102767.93;;;12.20;59.20
40372;BME280;28564;53.346;-6.554;2023-01-25T04:39:59;102767.22;;;12.23;59.17
40372;BME280;28564;53.346;-6.554;2023-01-25T04:42:26;102767.50;;;12.05;59.03
40372;BME280;28564;53.346;-6.554;2023-01-25T04:44:53;102769.83;;;12.06;58.97
40372;BME280;28564;53.346;-6.554;2023-01-25T04:47:20;102767.73;;;11.82;58.72
40372;BME280;28564;53.346;-6.554;2023-01-25T04:49:47;102760.00;;;12.08;58.83
40372;BME280;28564;53.346;-6.554;2023-01-25T04:52:15;102756.27;;;12.27;59.03
40372;BME280;28564;53.346;-6.554;2023-01-25T04:54:42;102762.36;;;12.10;58.91
40372;BME280;28564;53.346;-6.554;2023-01-25T04:57:09;102766.88;;;12.35;58.65
40372;BME280;28564;53.346;-6.554;2023-01-25T04:59:36;102770.85;;;12.11;58.72
40372;BME280;28564;53.346;-6.554;2023-01-25T05:02:03;102770.21;;;12.33;58.64
40372;BME280;28564;53.346;-6.554;2023-01-25T05:04:30;102769.12;;;12.32;58.78
40372;BME280;28564;53.346;-6.554;2023-01-25T05:06:58;102760.25;;;12.09;58.68
40372;BME280;28564;53.346;-6.554;2023-01-25T05:09:25;102757.92;;;12.29;58.84
40372;BME280;28564;53.346;-6.554;2023-01-25T05:11:52;102752.82;;;11.85;58.81
40372;BME280;28564;53.346;-6.554;2023-01-25T05:14:19;102745.82;;;11.95;58.60
40372;BME280;28564;53.346;-6.554;2023-01-25T05:16:46;102733.70;;;12.43;58.62
40372;BME280;28564;53.346;-6.554;2023-01-25T05:19:13;102728.70;;;12.25;58.53
40372;BME280;28564;53.346;-6.554;2023-01-25T05:21:40;102727.99;;;12.02;58.64
40372;BME280;28564;53.346;-6.554;2023-01-25T05:24:07;102721.61;;;12.05;58.46
40372;BME280;28564;53.346;-6.554;2023-01-25T05:26:34;102720.68;;;12.02;58.58
40372;BME280;28564;53.346;-6.554;2023-01-25T05:29:01;102713.86;;;12.48;58.57
40372;BME280;28564;53.346;-6.554;2023-01-25T05:31:29;102709.41;;;11.99;58.78
40372;BME280;28564;53.346;-6.554;2023-01-25T05:33:56;102708.06;;;12.51;58.68
40372;BME280;28564;53.346;-6.554;2023-01-25T05:36:23;102704.62;;;12.04;58.33
40372;BME280;28564;53.346;-6.554;2023-01-25T05:38:50;102698.17;;;12.49;58.42
40372;BME280;28564;53.346;-6.554;2023-01-25T05:41:18;102700.31;;;12.00;58.37
40372;BME280;28564;53.346;-6.554;2023-01-25T05:43:47;102693.15;;;12.25;58.38
40372;BME280;28564;53.346;-6.554;2023-01-25T05:46:14;102696.79;;;12.26;58.41
40372;BME280;28564;53.346;-6.554;2023-01-25T05:48:41;102695.75;;;12.25;58.50
40372;BME280;28564;53.346;-6.554;2023-01-25T05:51:08;102689.94;;;12.01;58.14
40372;BME280;28564;53.346;-6.554;2023-01-25T05:53:35;102694.96;;;12.23;58.20
40372;BME280;28564;53.346;-6.554;2023-01-25T05:56:04;102692.76;;;11.95;58.22
40372;BME280;28564;53.346;-6.554;2023-01-25T05:58:32;102688.05;;;12.42;58.12
40372;BME280;28564;53.346;-6.554;2023-01-25T06:00:59;102684.90;;;11.88;58.29
40372;BME280;28564;53.346;-6.554;2023-01-25T06:03:26;102681.92;;;11.88;58.50
40372;BME280;28564;53.346;-6.554;2023-01-25T06:05:54;102687.01;;;11.90;58.33
40372;BME280;28564;53.346;-6.554;2023-01-25T06:08:21;102695.82;;;12.39;58.27
40372;BME280;28564;53.346;-6.554;2023-01-25T06:10:48;102699.47;;;12.13;58.43
40372;BME280;28564;53.346;-6.554;2023-01-25T06:13:15;102701.44;;;12.33;58.49
40372;BME280;28564;53.346;-6.554;2023-01-25T06:15:51;102697.12;;;12.29;58.63
40372;BME280;28564;53.346;-6.554;2023-01-25T06:18:18;102695.84;;;12.05;58.73
40372;BME280;28564;53.346;-6.554;2023-01-25T06:20:47;102701.87;;;12.26;58.79
40372;BME280;28564;53.346;-6.554;2023-01-25T06:23:13;102705.69;;;12.24;58.79
40372;BME280;28564;53.346;-6.554;2023-01-25T06:25:41;102706.70;;;12.22;58.92
40372;BME280;28564;53.346;-6.554;2023-01-25T06:28:08;102711.75;;;12.22;59.07
40372;BME280;28564;53.346;-6.554;2023-01-25T06:30:35;102711.54;;;12.00;59.04
40372;BME280;28564;53.346;-6.554;2023-01-25T06:33:02;102710.86;;;12.22;59.07
40372;BME280;28564;53.346;-6.554;2023-01-25T06:35:31;102707.83;;;12.22;59.14
40372;BME280;28564;53.346;-6.554;2023-01-25T06:37:59;102706.04;;;12.24;58.95
40372;BME280;28564;53.346;-6.554;2023-01-25T06:40:27;102702.54;;;12.02;58.87
40372;BME280;28564;53.346;-6.554;2023-01-25T06:42:54;102698.84;;;11.98;58.96
40372;BME280;28564;53.346;-6.554;2023-01-25T06:45:22;102682.63;;;11.96;59.08
40372;BME280;28564;53.346;-6.554;2023-01-25T06:47:50;102687.73;;;12.21;58.95
40372;BME280;28564;53.346;-6.554;2023-01-25T06:50:17;102701.93;;;11.98;58.98
40372;BME280;28564;53.346;-6.554;2023-01-25T06:52:51;102690.65;;;12.20;59.06
40372;BME280;28564;53.346;-6.554;2023-01-25T06:55:18;102682.35;;;12.22;58.94
40372;BME280;28564;53.346;-6.554;2023-01-25T06:57:47;102678.56;;;12.21;58.91
40372;BME280;28564;53.346;-6.554;2023-01-25T07:00:16;102666.58;;;12.26;58.83
40372;BME280;28564;53.346;-6.554;2023-01-25T07:02:43;102658.47;;;12.27;58.75
40372;BME280;28564;53.346;-6.554;2023-01-25T07:05:10;102661.46;;;12.26;58.90
40372;BME280;28564;53.346;-6.554;2023-01-25T07:07:38;102654.74;;;12.28;59.05
40372;BME280;28564;53.346;-6.554;2023-01-25T07:10:06;102643.75;;;12.11;58.88
40372;BME280;28564;53.346;-6.554;2023-01-25T07:12:33;102631.54;;;11.89;58.71
40372;BME280;28564;53.346;-6.554;2023-01-25T07:15:01;102628.24;;;12.21;58.47
40372;BME280;28564;53.346;-6.554;2023-01-25T07:17:28;102620.26;;;11.95;58.58
40372;BME280;28564;53.346;-6.554;2023-01-25T07:19:55;102612.32;;;11.99;58.31
40372;BME280;28564;53.346;-6.554;2023-01-25T07:22:23;102608.39;;;11.99;58.19
40372;BME280;28564;53.346;-6.554;2023-01-25T07:24:50;102595.84;;;12.49;57.85
40372;BME280;28564;53.346;-6.554;2023-01-25T07:27:17;102594.20;;;12.22;58.30
40372;BME280;28564;53.346;-6.554;2023-01-25T07:29:44;102599.69;;;11.99;58.26
40372;BME280;28564;53.346;-6.554;2023-01-25T07:32:11;102602.51;;;12.25;57.93
40372;BME280;28564;53.346;-6.554;2023-01-25T07:34:40;102610.99;;;12.47;57.60
40372;BME280;28564;53.346;-6.554;2023-01-25T07:37:07;102620.10;;;12.25;57.59
40372;BME280;28564;53.346;-6.554;2023-01-25T07:39:34;102617.84;;;12.42;57.60
40372;BME280;28564;53.346;-6.554;2023-01-25T07:42:02;102622.44;;;11.85;57.89
40372;BME280;28564;53.346;-6.554;2023-01-25T07:44:29;102619.39;;;11.86;57.61
40372;BME280;28564;53.346;-6.554;2023-01-25T07:46:56;102609.39;;;12.09;57.80
40372;BME280;28564;53.346;-6.554;2023-01-25T07:49:23;102609.36;;;12.07;57.76
40372;BME280;28564;53.346;-6.554;2023-01-25T07:51:50;102602.49;;;11.75;57.84
40372;BME280;28564;53.346;-6.554;2023-01-25T07:54:17;102585.16;;;11.96;58.14
40372;BME280;28564;53.346;-6.554;2023-01-25T07:56:45;102579.91;;;11.70;57.99
40372;BME280;28564;53.346;-6.554;2023-01-25T07:59:18;102585.83;;;11.96;58.04
40372;BME280;28564;53.346;-6.554;2023-01-25T08:01:46;102601.66;;;12.22;57.69
40372;BME280;28564;53.346;-6.554;2023-01-25T08:04:13;102612.29;;;12.21;57.68
40372;BME280;28564;53.346;-6.554;2023-01-25T08:06:40;102613.25;;;12.19;57.62
40372;BME280;28564;53.346;-6.554;2023-01-25T08:09:11;102611.26;;;12.14;57.73
40372;BME280;28564;53.346;-6.554;2023-01-25T08:11:38;102615.91;;;12.13;57.79
40372;BME280;28564;53.346;-6.554;2023-01-25T08:14:05;102603.28;;;12.09;57.93
40372;BME280;28564;53.346;-6.554;2023-01-25T08:16:33;102600.90;;;12.10;57.90
40372;BME280;28564;53.346;-6.554;2023-01-25T08:19:01;102609.65;;;12.12;57.82
40372;BME280;28564;53.346;-6.554;2023-01-25T08:21:32;102620.79;;;11.92;57.56
40372;BME280;28564;53.346;-6.554;2023-01-25T08:24:01;102627.22;;;12.13;57.63
40372;BME280;28564;53.346;-6.554;2023-01-25T08:26:29;102629.99;;;11.92;57.44
40372;BME280;28564;53.346;-6.554;2023-01-25T08:28:56;102637.20;;;12.21;57.23
40372;BME280;28564;53.346;-6.554;2023-01-25T08:31:25;102643.75;;;12.14;57.50
40372;BME280;28564;53.346;-6.554;2023-01-25T08:33:53;102639.53;;;12.13;57.55
40372;BME280;28564;53.346;-6.554;2023-01-25T08:36:21;102633.70;;;12.12;57.60
40372;BME280;28564;53.346;-6.554;2023-01-25T08:38:53;102626.55;;;12.15;57.43
40372;BME280;28564;53.346;-6.554;2023-01-25T08:41:20;102605.74;;;12.13;57.59
40372;BME280;28564;53.346;-6.554;2023-01-25T08:43:47;102607.32;;;12.17;57.50
40372;BME280;28564;53.346;-6.554;2023-01-25T08:46:17;102608.75;;;11.97;57.24
40372;BME280;28564;53.346;-6.554;2023-01-25T08:48:44;102608.92;;;12.19;57.24
40372;BME280;28564;53.346;-6.554;2023-01-25T08:51:13;102604.05;;;11.72;57.29
40372;BME280;28564;53.346;-6.554;2023-01-25T08:53:41;102591.68;;;12.01;57.61
40372;BME280;28564;53.346;-6.554;2023-01-25T08:56:10;102574.50;;;12.27;57.37
40372;BME280;28564;53.346;-6.554;2023-01-25T08:58:39;102576.24;;;12.13;57.39
40372;BME280;28564;53.346;-6.554;2023-01-25T09:01:11;102578.72;;;11.91;57.27
40372;BME280;28564;53.346;-6.554;2023-01-25T09:03:42;102573.67;;;12.45;57.29
40372;BME280;28564;53.346;-6.554;2023-01-25T09:06:10;102573.31;;;12.01;57.07
40372;BME280;28564;53.346;-6.554;2023-01-25T09:08:39;102586.18;;;12.25;57.11
40372;BME280;28564;53.346;-6.554;2023-01-25T09:11:08;102593.53;;;12.47;57.21
40372;BME280;28564;53.346;-6.554;2023-01-25T09:13:36;102592.88;;;11.99;57.04
40372;BME280;28564;53.346;-6.554;2023-01-25T09:16:05;102590.38;;;11.95;57.35
40372;BME280;28564;53.346;-6.554;2023-01-25T09:18:35;102585.67;;;11.97;57.28
40372;BME280;28564;53.346;-6.554;2023-01-25T09:21:05;102594.27;;;11.98;57.31
40372;BME280;28564;53.346;-6.554;2023-01-25T09:23:33;102612.38;;;12.01;57.20
40372;BME280;28564;53.346;-6.554;2023-01-25T09:26:01;102625.56;;;12.10;56.87
40372;BME280;28564;53.346;-6.554;2023-01-25T09:28:30;102631.72;;;12.23;56.69
40372;BME280;28564;53.346;-6.554;2023-01-25T09:30:59;102630.72;;;11.95;56.30
40372;BME280;28564;53.346;-6.554;2023-01-25T09:33:28;102617.98;;;12.24;56.26
40372;BME280;28564;53.346;-6.554;2023-01-25T09:35:57;102610.95;;;12.32;56.15
40372;BME280;28564;53.346;-6.554;2023-01-25T09:38:24;102605.83;;;12.41;55.89
40372;BME280;28564;53.346;-6.554;2023-01-25T09:41:00;102594.58;;;12.26;55.93
40372;BME280;28564;53.346;-6.554;2023-01-25T09:43:43;102578.73;;;12.33;55.82
40372;BME280;28564;53.346;-6.554;2023-01-25T09:46:24;102578.27;;;12.40;55.34
40372;BME280;28564;53.346;-6.554;2023-01-25T09:48:58;102594.39;;;12.46;55.27
40372;BME280;28564;53.346;-6.554;2023-01-25T09:51:42;102611.35;;;12.49;55.18
40372;BME280;28564;53.346;-6.554;2023-01-25T09:54:16;102610.96;;;12.14;55.55
40372;BME280;28564;53.346;-6.554;2023-01-25T09:56:48;102613.96;;;12.42;55.59
40372;BME280;28564;53.346;-6.554;2023-01-25T09:59:20;102602.21;;;12.37;55.84
40372;BME280;28564;53.346;-6.554;2023-01-25T10:03:54;102593.84;;;12.64;55.37
40372;BME280;28564;53.346;-6.554;2023-01-25T10:06:35;102583.93;;;12.44;55.46
40372;BME280;28564;53.346;-6.554;2023-01-25T10:09:11;102576.47;;;12.61;56.25
40372;BME280;28564;53.346;-6.554;2023-01-25T10:11:42;102566.41;;;12.43;57.02
40372;BME280;28564;53.346;-6.554;2023-01-25T10:14:13;102557.02;;;12.30;57.21
40372;BME280;28564;53.346;-6.554;2023-01-25T10:16:53;102550.98;;;12.22;57.50
40372;BME280;28564;53.346;-6.554;2023-01-25T10:19:32;102550.86;;;12.15;57.65
40372;BME280;28564;53.346;-6.554;2023-01-25T10:22:07;102561.00;;;12.14;57.83
40372;BME280;28564;53.346;-6.554;2023-01-25T10:25:00;102574.74;;;12.16;57.94
40372;BME280;28564;53.346;-6.554;2023-01-25T10:27:39;102588.54;;;12.16;58.14
40372;BME280;28564;53.346;-6.554;2023-01-25T10:30:22;102593.11;;;12.18;58.30
40372;BME280;28564;53.346;-6.554;2023-01-25T10:32:57;102593.99;;;12.29;58.07
40372;BME280;28564;53.346;-6.554;2023-01-25T10:35:28;102609.97;;;12.35;58.15
40372;BME280;28564;53.346;-6.554;2023-01-25T10:38:02;102609.46;;;12.39;58.36
40372;BME280;28564;53.346;-6.554;2023-01-25T10:40:37;102608.91;;;12.45;58.26
40372;BME280;28564;53.346;-6.554;2023-01-25T10:43:14;102616.35;;;12.46;58.27
40372;BME280;28564;53.346;-6.554;2023-01-25T10:45:43;102619.22;;;12.50;58.47
40372;BME280;28564;53.346;-6.554;2023-01-25T10:48:17;102613.33;;;12.55;58.45
40372;BME280;28564;53.346;-6.554;2023-01-25T10:50:48;102611.77;;;12.56;58.72
40372;BME280;28564;53.346;-6.554;2023-01-25T10:53:23;102611.49;;;12.41;58.81
40372;BME280;28564;53.346;-6.554;2023-01-25T10:55:57;102612.19;;;12.64;58.88
40372;BME280;28564;53.346;-6.554;2023-01-25T10:58:31;102616.75;;;12.73;58.90
40372;BME280;28564;53.346;-6.554;2023-01-25T11:00:59;102623.56;;;12.55;59.10
40372;BME280;28564;53.346;-6.554;2023-01-25T11:03:34;102615.46;;;12.85;59.13
40372;BME280;28564;53.346;-6.554;2023-01-25T11:06:02;102613.29;;;12.71;59.32
40372;BME280;28564;53.346;-6.554;2023-01-25T11:08:34;102611.44;;;13.02;59.32
40372;BME280;28564;53.346;-6.554;2023-01-25T11:11:23;102616.35;;;12.89;59.34
40372;BME280;28564;53.346;-6.554;2023-01-25T11:13:51;102615.61;;;12.87;59.23
40372;BME280;28564;53.346;-6.554;2023-01-25T11:16:27;102617.17;;;13.41;59.16
40372;BME280;28564;53.346;-6.554;2023-01-25T11:18:56;102616.87;;;12.97;59.21
40372;BME280;28564;53.346;-6.554;2023-01-25T11:21:25;102620.49;;;13.18;59.30
40372;BME280;28564;53.346;-6.554;2023-01-25T11:24:03;102631.10;;;13.15;59.40
40372;BME280;28564;53.346;-6.554;2023-01-25T11:26:42;102630.29;;;13.23;59.38
40372;BME280;28564;53.346;-6.554;2023-01-25T11:29:13;102634.57;;;13.24;59.50
40372;BME280;28564;53.346;-6.554;2023-01-25T11:31:43;102644.63;;;13.21;58.72
40372;BME280;28564;53.346;-6.554;2023-01-25T11:34:13;102653.98;;;12.80;58.06
40372;BME280;28564;53.346;-6.554;2023-01-25T11:36:52;102651.39;;;12.93;57.67
40372;BME280;28564;53.346;-6.554;2023-01-25T11:39:33;102646.53;;;12.65;57.84
40372;BME280;28564;53.346;-6.554;2023-01-25T11:42:13;102642.96;;;12.76;57.34
40372;BME280;28564;53.346;-6.554;2023-01-25T11:45:11;102652.81;;;13.24;56.99
40372;BME280;28564;53.346;-6.554;2023-01-25T11:47:53;102650.98;;;13.09;56.35
40372;BME280;28564;53.346;-6.554;2023-01-25T11:50:32;102653.82;;;12.91;56.28
40372;BME280;28564;53.346;-6.554;2023-01-25T11:53:24;102653.09;;;12.85;55.02
40372;BME280;28564;53.346;-6.554;2023-01-25T11:55:57;102649.10;;;12.74;55.29
40372;BME280;28564;53.346;-6.554;2023-01-25T11:58:39;102647.03;;;12.94;55.67
40372;BME280;28564;53.346;-6.554;2023-01-25T12:01:16;102642.34;;;13.00;55.24
40372;BME280;28564;53.346;-6.554;2023-01-25T12:04:13;102642.02;;;12.79;54.47
40372;BME280;28564;53.346;-6.554;2023-01-25T12:06:55;102632.11;;;12.75;55.14
40372;BME280;28564;53.346;-6.554;2023-01-25T12:09:33;102632.69;;;13.07;54.18
40372;BME280;28564;53.346;-6.554;2023-01-25T12:12:10;102641.09;;;13.31;54.91
40372;BME280;28564;53.346;-6.554;2023-01-25T12:14:53;102646.83;;;12.94;54.35
40372;BME280;28564;53.346;-6.554;2023-01-25T12:17:40;102650.99;;;12.99;54.53
40372;BME280;28564;53.346;-6.554;2023-01-25T12:20:27;102657.92;;;13.00;54.53
40372;BME280;28564;53.346;-6.554;2023-01-25T12:23:09;102656.28;;;12.97;53.95
40372;BME280;28564;53.346;-6.554;2023-01-25T12:25:46;102647.52;;;13.39;53.95
40372;BME280;28564;53.346;-6.554;2023-01-25T12:28:21;102642.57;;;12.93;53.40
40372;BME280;28564;53.346;-6.554;2023-01-25T12:30:54;102645.61;;;12.93;53.70
40372;BME280;28564;53.346;-6.554;2023-01-25T12:33:27;102647.16;;;13.21;52.80
40372;BME280;28564;53.346;-6.554;2023-01-25T12:36:03;102650.00;;;12.98;52.54
40372;BME280;28564;53.346;-6.554;2023-01-25T12:38:36;102646.47;;;13.01;52.43
40372;BME280;28564;53.346;-6.554;2023-01-25T12:41:17;102637.40;;;13.05;52.66
40372;BME280;28564;53.346;-6.554;2023-01-25T12:43:49;102629.68;;;13.40;52.58
40372;BME280;28564;53.346;-6.554;2023-01-25T12:46:25;102628.00;;;13.20;52.06
40372;BME280;28564;53.346;-6.554;2023-01-25T12:48:58;102615.39;;;13.17;51.87
40372;BME280;28564;53.346;-6.554;2023-01-25T12:51:32;102621.26;;;13.39;51.24
40372;BME280;28564;53.346;-6.554;2023-01-25T12:54:09;102622.94;;;13.36;51.50
40372;BME280;28564;53.346;-6.554;2023-01-25T12:56:44;102623.87;;;13.43;51.57
40372;BME280;28564;53.346;-6.554;2023-01-25T12:59:17;102616.18;;;13.37;51.75